createdAt,value
2023-01-17T00:00:04.708Z,0.30
2023-01-17T00:02:35.663Z,0.10
2023-01-17T00:05:24.666Z,0.30
2023-01-17T00:08:13.013Z,0.22
2023-01-17T00:10:43.706Z,0.32
2023-01-17T00:13:13.806Z,0.40
2023-01-17T00:15:43.806Z,0.28
2023-01-17T00:18:14.114Z,0.30
2023-01-17T00:21:02.195Z,0.40
2023-01-17T00:23:50.495Z,0.40
2023-01-17T00:26:21.553Z,0.30
2023-01-17T00:28:51.747Z,0.40
2023-01-17T00:31:21.992Z,0.40
2023-01-17T00:33:51.944Z,0.10
2023-01-17T00:36:22.265Z,0.30
2023-01-17T00:38:52.185Z,0.57
2023-01-17T00:41:21.909Z,0.63
2023-01-17T00:44:10.095Z,0.40
2023-01-17T00:46:58.461Z,0.43
2023-01-17T00:49:46.930Z,0.57
2023-01-17T00:52:35.116Z,0.70
2023-01-17T00:55:23.439Z,0.35
2023-01-17T00:58:11.791Z,0.63
2023-01-17T01:01:00.282Z,0.32
2023-01-17T01:03:48.645Z,0.45
2023-01-17T01:06:36.964Z,0.50
2023-01-17T01:09:25.087Z,0.80
2023-01-17T01:12:13.435Z,0.55
2023-01-17T01:15:01.753Z,0.45
2023-01-17T01:17:50.040Z,0.35
2023-01-17T01:20:38.315Z,0.40
2023-01-17T01:23:26.624Z,0.43
2023-01-17T01:26:15.110Z,0.47
2023-01-17T01:29:03.290Z,0.32
2023-01-17T01:31:51.737Z,0.50
2023-01-17T01:34:22.221Z,0.40
2023-01-17T01:36:52.413Z,0.25
2023-01-17T01:39:22.949Z,0.50
2023-01-17T01:41:53.339Z,0.60
2023-01-17T01:47:24.760Z,0.20
2023-01-17T01:49:55.133Z,0.35
2023-01-17T01:52:30.504Z,0.70
2023-01-17T01:55:03.949Z,0.50
2023-01-17T01:57:39.556Z,0.47
2023-01-17T02:00:23.333Z,0.47
2023-01-17T02:02:55.251Z,0.50
2023-01-17T02:05:28.483Z,0.52
2023-01-17T02:08:08.864Z,0.30
2023-01-17T02:10:42.276Z,0.30
2023-01-17T02:13:14.714Z,0.40
2023-01-17T02:15:57.540Z,0.20
2023-01-17T02:19:07.497Z,0.40
2023-01-17T02:22:03.067Z,0.32
2023-01-17T02:25:17.473Z,0.22
2023-01-17T02:28:09.721Z,0.15
2023-01-17T02:30:50.440Z,0.35
2023-01-17T02:33:58.387Z,0.30
2023-01-17T02:36:34.408Z,0.22
2023-01-17T02:39:22.312Z,0.30
2023-01-17T02:42:19.324Z,0.57
2023-01-17T02:44:49.575Z,0.38
2023-01-17T02:47:31.328Z,0.30
2023-01-17T02:50:15.515Z,0.20
2023-01-17T02:53:36.077Z,0.30
2023-01-17T02:56:22.346Z,0.38
2023-01-17T02:59:33.587Z,0.30
2023-01-17T03:02:09.465Z,0.05
2023-01-17T03:05:06.813Z,0.22
2023-01-17T03:07:37.902Z,0.30
2023-01-17T03:10:09.816Z,0.10
2023-01-17T03:12:41.463Z,0.43
2023-01-17T03:15:16.449Z,0.40
2023-01-17T03:17:51.078Z,0.30
2023-01-17T03:20:22.680Z,0.32
2023-01-17T03:22:53.020Z,0.35
2023-01-17T03:25:23.160Z,0.50
2023-01-17T03:30:24.296Z,0.30
2023-01-17T03:32:54.580Z,0.57
2023-01-17T03:35:24.808Z,0.30
2023-01-17T03:37:54.935Z,0.32
2023-01-17T03:40:25.456Z,0.13
2023-01-17T03:42:55.853Z,0.70
2023-01-17T03:45:26.089Z,0.30
2023-01-17T03:47:58.071Z,0.13
2023-01-17T03:50:28.498Z,0.40
2023-01-17T03:52:58.870Z,0.28
2023-01-17T03:55:29.061Z,0.40
2023-01-17T04:00:29.085Z,0.20
2023-01-17T04:05:29.015Z,0.93
2023-01-17T04:10:28.718Z,0.20
2023-01-17T04:12:58.786Z,0.40
2023-01-17T04:15:28.828Z,0.50
2023-01-17T04:17:59.271Z,0.73
2023-01-17T04:20:38.318Z,0.25
2023-01-17T04:23:08.969Z,0.20
2023-01-17T04:25:39.408Z,0.40
2023-01-17T04:28:09.696Z,0.65
2023-01-17T04:30:40.042Z,0.20
2023-01-17T04:33:10.638Z,0.47
2023-01-17T04:35:40.593Z,0.22
2023-01-17T04:38:10.514Z,0.30
2023-01-17T04:43:10.604Z,0.30
2023-01-17T04:45:40.812Z,0.30
2023-01-17T04:48:13.831Z,0.47
2023-01-17T04:50:43.938Z,0.50
2023-01-17T04:53:14.164Z,0.38
2023-01-17T04:55:48.157Z,0.20
2023-01-17T04:58:19.103Z,0.30
2023-01-17T05:00:52.102Z,0.50
2023-01-17T05:03:23.897Z,0.25
2023-01-17T05:05:54.087Z,0.63
2023-01-17T05:08:24.403Z,0.65
2023-01-17T05:10:54.658Z,0.57
2023-01-17T05:13:24.810Z,0.22
2023-01-17T05:15:55.106Z,0.30
2023-01-17T05:18:25.361Z,0.65
2023-01-17T05:20:55.667Z,0.40
2023-01-17T05:23:26.564Z,0.40
2023-01-17T05:25:56.808Z,0.52
2023-01-17T05:28:26.951Z,0.30
2023-01-17T05:33:26.638Z,0.28
2023-01-17T05:35:56.958Z,0.28
2023-01-17T05:38:27.272Z,0.30
2023-01-17T05:41:00.279Z,0.30
2023-01-17T05:43:31.137Z,0.50
2023-01-17T05:46:01.281Z,0.50
2023-01-17T05:51:01.173Z,0.43
2023-01-17T05:53:31.425Z,0.32
2023-01-17T05:56:01.610Z,0.40
2023-01-17T06:01:01.410Z,0.60
2023-01-17T06:03:32.487Z,0.20
2023-01-17T06:06:02.592Z,0.35
2023-01-17T06:08:32.955Z,0.20
2023-01-17T06:11:03.180Z,0.50
2023-01-17T06:13:33.896Z,0.70
2023-01-17T06:16:05.363Z,0.40
2023-01-17T06:18:35.695Z,0.47
2023-01-17T06:21:06.014Z,0.88
2023-01-17T06:23:36.332Z,0.82
2023-01-17T06:26:06.947Z,0.88
2023-01-17T06:28:37.455Z,1.25
2023-01-17T06:31:10.000Z,1.20
2023-01-17T06:33:40.393Z,1.02
2023-01-17T06:36:10.921Z,0.90
2023-01-17T06:38:41.022Z,0.95
2023-01-17T06:41:11.217Z,0.90
2023-01-17T06:43:41.616Z,0.82
2023-01-17T06:46:11.874Z,0.93
2023-01-17T06:48:44.781Z,0.90
2023-01-17T06:51:14.869Z,0.70
2023-01-17T06:53:45.771Z,0.82
2023-01-17T06:56:16.581Z,0.60
2023-01-17T06:58:50.090Z,0.80
2023-01-17T07:01:21.201Z,0.68
2023-01-17T07:03:51.631Z,0.60
2023-01-17T07:06:22.406Z,0.75
2023-01-17T07:08:52.493Z,0.95
2023-01-17T07:11:22.734Z,0.55
2023-01-17T07:13:52.914Z,0.55
2023-01-17T07:18:53.044Z,0.47
2023-01-17T07:21:23.831Z,0.70
2023-01-17T07:23:54.043Z,0.50
2023-01-17T07:26:24.253Z,0.70
2023-01-17T07:31:23.755Z,0.50
2023-01-17T07:33:53.752Z,0.55
2023-01-17T07:36:23.739Z,0.57
2023-01-17T07:38:53.792Z,0.65
2023-01-17T07:41:24.194Z,0.47
2023-01-17T07:43:56.337Z,0.38
2023-01-17T07:46:26.810Z,0.45
2023-01-17T07:48:56.782Z,0.50
2023-01-17T07:51:26.661Z,0.65
2023-01-17T07:53:56.585Z,0.30
2023-01-17T07:56:26.711Z,0.70
2023-01-17T07:58:56.883Z,0.45
2023-01-17T08:03:56.670Z,1.20
2023-01-17T08:06:27.874Z,0.70
2023-01-17T08:09:00.222Z,0.70
2023-01-17T08:11:30.408Z,0.50
2023-01-17T08:16:31.211Z,0.70
2023-01-17T08:19:01.427Z,0.90
2023-01-17T08:21:31.557Z,0.75
2023-01-17T08:26:31.256Z,1.00
2023-01-17T08:31:34.792Z,1.25
2023-01-17T08:34:05.296Z,1.27
2023-01-17T08:36:35.483Z,1.27
2023-01-17T08:41:35.038Z,2.17
2023-01-17T08:46:34.855Z,1.65
2023-01-17T08:49:05.035Z,1.42
2023-01-17T08:54:04.739Z,1.55
2023-01-17T08:56:34.979Z,1.20
2023-01-17T08:59:05.462Z,1.10
2023-01-17T09:01:41.991Z,1.00
2023-01-17T09:04:13.683Z,1.20
2023-01-17T09:06:49.454Z,1.55
2023-01-17T09:09:20.715Z,0.55
2023-01-17T09:11:50.813Z,0.60
2023-01-17T09:14:21.003Z,0.70
2023-01-17T09:16:52.580Z,0.88
2023-01-17T09:19:22.977Z,0.95
2023-01-17T09:21:52.995Z,0.65
2023-01-17T09:26:52.680Z,0.95
2023-01-17T09:29:23.120Z,0.75
2023-01-17T09:34:22.989Z,1.20
2023-01-17T09:36:53.255Z,1.60
2023-01-17T09:39:23.441Z,1.35
2023-01-17T09:44:53.249Z,1.40
2023-01-17T09:47:41.714Z,1.20
2023-01-17T09:50:16.504Z,1.33
2023-01-17T09:52:47.042Z,1.65
2023-01-17T09:55:19.331Z,1.60
2023-01-17T09:58:02.818Z,1.63
2023-01-17T10:01:18.076Z,1.00
2023-01-17T10:04:13.802Z,1.02
2023-01-17T10:07:14.919Z,1.15
2023-01-17T10:10:07.084Z,0.90
2023-01-17T10:13:12.769Z,0.70
2023-01-17T10:16:13.617Z,1.00
2023-01-17T10:19:21.739Z,1.40
2023-01-17T10:22:18.920Z,1.05
2023-01-17T10:24:58.279Z,1.23
2023-01-17T10:27:35.424Z,1.50
2023-01-17T10:30:17.144Z,0.70
2023-01-17T10:32:50.872Z,1.00
2023-01-17T10:35:31.418Z,1.08
2023-01-17T10:38:05.127Z,1.05
2023-01-17T10:40:52.976Z,0.65
2023-01-17T10:43:53.342Z,0.70
2023-01-17T10:46:48.483Z,1.00
2023-01-17T10:49:24.998Z,0.85
2023-01-17T10:52:01.076Z,1.10
2023-01-17T10:54:46.633Z,0.70
2023-01-17T10:57:24.630Z,1.17
2023-01-17T10:59:59.696Z,0.90
2023-01-17T11:02:34.448Z,1.30
2023-01-17T11:05:15.924Z,0.60
2023-01-17T11:08:18.943Z,1.10
2023-01-17T11:10:55.466Z,0.90
2023-01-17T11:13:37.865Z,0.80
2023-01-17T11:16:18.034Z,1.00
2023-01-17T11:18:49.985Z,0.80
2023-01-17T11:21:24.469Z,0.55
2023-01-17T11:24:00.439Z,0.90
2023-01-17T11:26:36.157Z,0.80
2023-01-17T11:29:29.703Z,0.82
2023-01-17T11:32:19.374Z,1.02
2023-01-17T11:35:22.450Z,1.13
2023-01-17T11:38:04.900Z,0.40
2023-01-17T11:43:19.717Z,0.60
2023-01-17T11:46:15.780Z,0.40
2023-01-17T11:48:53.907Z,0.43
2023-01-17T11:51:34.788Z,0.30
2023-01-17T11:54:18.543Z,0.30
2023-01-17T11:56:48.867Z,0.50
2023-01-17T11:59:25.315Z,0.52
2023-01-17T12:02:23.034Z,0.35
2023-01-17T12:05:09.549Z,0.30
2023-01-17T12:07:58.947Z,0.77
2023-01-17T12:10:39.199Z,0.60
2023-01-17T12:14:00.547Z,0.25
2023-01-17T12:16:45.747Z,0.30
2023-01-17T12:19:47.880Z,0.60
2023-01-17T12:22:54.613Z,0.45
2023-01-17T12:25:55.823Z,0.20
2023-01-17T12:29:02.129Z,0.60
2023-01-17T12:31:47.371Z,0.50
2023-01-17T12:34:31.784Z,0.30
2023-01-17T12:37:38.195Z,0.22
2023-01-17T12:40:37.303Z,0.47
2023-01-17T12:43:15.990Z,0.38
2023-01-17T12:45:49.114Z,0.30
2023-01-17T12:48:23.937Z,0.40
2023-01-17T12:50:56.348Z,0.40
2023-01-17T12:53:42.115Z,0.40
2023-01-17T12:56:15.081Z,0.82
2023-01-17T12:58:50.399Z,0.50
2023-01-17T13:01:23.960Z,0.60
2023-01-17T13:04:13.265Z,0.80
2023-01-17T13:06:55.368Z,0.65
2023-01-17T13:09:26.480Z,0.40
2023-01-17T13:12:12.109Z,0.40
2023-01-17T13:14:42.693Z,0.40
2023-01-17T13:17:28.219Z,0.28
2023-01-17T13:20:35.031Z,0.60
2023-01-17T13:23:35.205Z,0.60
2023-01-17T13:26:09.373Z,0.60
2023-01-17T13:29:11.067Z,0.68
2023-01-17T13:31:58.693Z,0.25
2023-01-17T13:34:41.797Z,0.50
2023-01-17T13:37:30.349Z,0.70
2023-01-17T13:43:03.845Z,0.60
2023-01-17T13:45:38.247Z,0.40
2023-01-17T13:48:15.790Z,0.30
2023-01-17T13:50:54.141Z,0.28
2023-01-17T13:53:44.671Z,0.40
2023-01-17T13:56:28.002Z,0.50
2023-01-17T13:59:04.087Z,0.60
2023-01-17T14:04:15.321Z,0.52
2023-01-17T14:06:51.283Z,0.45
2023-01-17T14:09:28.343Z,0.60
2023-01-17T14:12:21.028Z,0.50
2023-01-17T14:14:53.974Z,0.47
2023-01-17T14:17:31.222Z,0.40
2023-01-17T14:20:27.103Z,0.57
2023-01-17T14:23:03.876Z,0.60
2023-01-17T14:25:42.837Z,0.43
2023-01-17T14:28:39.015Z,0.30
2023-01-17T14:31:12.683Z,0.77
2023-01-17T14:33:43.918Z,0.30
2023-01-17T14:36:30.015Z,0.50
2023-01-17T14:39:00.170Z,0.75
2023-01-17T14:41:31.953Z,0.50
2023-01-17T14:44:02.400Z,0.75
2023-01-17T14:46:34.152Z,0.70
2023-01-17T14:49:07.446Z,0.90
2023-01-17T14:51:38.477Z,0.52
2023-01-17T14:54:28.870Z,0.47
2023-01-17T14:57:24.422Z,0.60
2023-01-17T15:00:18.601Z,0.75
2023-01-17T15:02:51.876Z,0.50
2023-01-17T15:05:24.264Z,0.82
2023-01-17T15:07:57.563Z,0.40
2023-01-17T15:10:32.929Z,0.73
2023-01-17T15:13:10.412Z,0.60
2023-01-17T15:15:43.207Z,0.60
2023-01-17T15:18:20.767Z,0.55
2023-01-17T15:21:06.331Z,0.43
2023-01-17T15:23:45.056Z,0.50
2023-01-17T15:26:18.597Z,0.60
2023-01-17T15:28:49.410Z,0.38
2023-01-17T15:31:47.063Z,0.50
2023-01-17T15:34:32.930Z,0.57
2023-01-17T15:37:09.235Z,0.60
2023-01-17T15:39:43.562Z,0.75
2023-01-17T15:42:29.172Z,0.47
2023-01-17T15:45:03.757Z,0.70
2023-01-17T15:47:42.093Z,0.80
2023-01-17T15:50:33.188Z,0.75
2023-01-17T15:53:07.483Z,0.57
2023-01-17T15:55:40.247Z,0.40
2023-01-17T15:58:30.678Z,0.40
2023-01-17T16:01:01.284Z,0.40
2023-01-17T16:03:32.675Z,0.40
2023-01-17T16:06:05.674Z,0.40
2023-01-17T16:08:40.775Z,0.32
2023-01-17T16:11:14.554Z,0.60
2023-01-17T16:13:48.433Z,0.60
2023-01-17T16:16:24.936Z,0.20
2023-01-17T16:19:01.736Z,0.50
2023-01-17T16:21:33.521Z,0.60
2023-01-17T16:24:04.349Z,0.20
2023-01-17T16:26:34.893Z,0.50
2023-01-17T16:29:05.157Z,0.45
2023-01-17T16:31:35.677Z,0.47
2023-01-17T16:34:13.426Z,0.57
2023-01-17T16:36:44.711Z,0.40
2023-01-17T16:39:16.554Z,0.68
2023-01-17T16:41:46.706Z,0.50
2023-01-17T16:44:17.921Z,0.47
2023-01-17T16:46:48.109Z,0.40
2023-01-17T16:49:19.769Z,0.70
2023-01-17T16:51:51.213Z,0.77
2023-01-17T16:54:21.403Z,0.70
2023-01-17T16:56:51.748Z,0.75
2023-01-17T16:59:21.971Z,0.52
2023-01-17T17:02:12.840Z,0.55
2023-01-17T17:04:43.735Z,0.60
2023-01-17T17:07:13.993Z,0.57
2023-01-17T17:09:44.203Z,0.63
2023-01-17T17:12:14.508Z,0.55
2023-01-17T17:14:44.748Z,0.70
2023-01-17T17:17:15.217Z,0.70
2023-01-17T17:19:45.464Z,0.52
2023-01-17T17:22:15.841Z,0.68
2023-01-17T17:24:46.095Z,0.70
2023-01-17T17:27:19.294Z,0.75
2023-01-17T17:29:49.436Z,0.65
2023-01-17T17:32:19.702Z,0.85
2023-01-17T17:34:52.087Z,0.70
2023-01-17T17:37:24.064Z,0.50
2023-01-17T17:39:54.282Z,1.25
2023-01-17T17:42:25.278Z,0.65
2023-01-17T17:44:55.583Z,0.70
2023-01-17T17:47:25.800Z,0.70
2023-01-17T17:49:56.069Z,0.43
2023-01-17T17:52:26.848Z,0.50
2023-01-17T17:54:57.012Z,0.93
2023-01-17T17:57:27.317Z,0.90
2023-01-17T17:59:57.944Z,0.80
2023-01-17T18:02:28.503Z,0.52
2023-01-17T18:04:59.268Z,0.73
2023-01-17T18:07:31.856Z,0.85
2023-01-17T18:10:02.113Z,0.63
2023-01-17T18:12:32.307Z,1.38
2023-01-17T18:15:02.490Z,0.80
2023-01-17T18:17:32.823Z,0.70
2023-01-17T18:20:03.007Z,0.68
2023-01-17T18:22:35.288Z,0.57
2023-01-17T18:25:05.687Z,0.47
2023-01-17T18:27:35.977Z,0.93
2023-01-17T18:30:06.717Z,0.52
2023-01-17T18:32:36.913Z,0.80
2023-01-17T18:35:08.129Z,0.47
2023-01-17T18:37:38.958Z,0.52
2023-01-17T18:40:09.549Z,0.60
2023-01-17T18:42:40.236Z,0.82
2023-01-17T18:45:11.015Z,0.50
2023-01-17T18:47:41.327Z,0.82
2023-01-17T18:50:11.945Z,0.50
2023-01-17T18:52:42.184Z,0.38
2023-01-17T18:55:12.526Z,0.68
2023-01-17T18:57:42.983Z,1.02
2023-01-17T19:00:16.052Z,0.40
2023-01-17T19:02:50.151Z,0.75
2023-01-17T19:05:22.694Z,0.60
2023-01-17T19:07:53.185Z,0.60
2023-01-17T19:10:23.663Z,0.63
2023-01-17T19:12:53.622Z,0.85
2023-01-17T19:15:23.973Z,0.50
2023-01-17T19:17:54.457Z,0.52
2023-01-17T19:20:24.858Z,0.50
2023-01-17T19:22:55.178Z,0.45
2023-01-17T19:25:26.808Z,0.45
2023-01-17T19:27:57.411Z,0.60
2023-01-17T19:30:27.539Z,0.70
2023-01-17T19:32:58.150Z,0.70
2023-01-17T19:35:30.433Z,0.73
2023-01-17T19:38:00.633Z,0.75
2023-01-17T19:40:30.877Z,0.68
2023-01-17T19:43:01.169Z,0.50
2023-01-17T19:45:31.413Z,0.40
2023-01-17T19:48:01.661Z,0.45
2023-01-17T19:50:31.813Z,0.75
2023-01-17T19:55:31.507Z,0.47
2023-01-17T19:58:01.768Z,0.50
2023-01-17T20:00:31.757Z,0.85
2023-01-17T20:03:01.944Z,0.60
2023-01-17T20:05:33.508Z,0.52
2023-01-17T20:08:04.050Z,0.32
2023-01-17T20:10:34.352Z,0.40
2023-01-17T20:13:06.012Z,0.70
2023-01-17T20:15:36.271Z,0.93
2023-01-17T20:18:06.628Z,0.57
2023-01-17T20:20:48.912Z,0.43
2023-01-17T20:23:26.419Z,1.40
2023-01-17T20:26:02.898Z,0.60
2023-01-17T20:28:35.479Z,0.73
2023-01-17T20:31:15.574Z,0.90
2023-01-17T20:33:48.145Z,0.43
2023-01-17T20:36:24.123Z,0.68
2023-01-17T20:38:55.676Z,0.73
2023-01-17T20:41:30.150Z,1.00
2023-01-17T20:44:01.774Z,0.70
2023-01-17T20:46:37.141Z,0.80
2023-01-17T20:49:17.571Z,0.57
2023-01-17T20:51:48.567Z,0.60
2023-01-17T20:54:20.519Z,0.40
2023-01-17T20:56:50.818Z,0.40
2023-01-17T20:59:25.625Z,0.60
2023-01-17T21:01:55.843Z,0.40
2023-01-17T21:04:27.159Z,0.35
2023-01-17T21:06:57.577Z,0.70
2023-01-17T21:09:27.859Z,0.47
2023-01-17T21:12:02.283Z,0.95
2023-01-17T21:14:32.690Z,0.40
2023-01-17T21:17:03.009Z,0.40
2023-01-17T21:19:33.333Z,0.25
2023-01-17T21:22:06.518Z,0.32
2023-01-17T21:24:37.555Z,0.65
2023-01-17T21:27:07.537Z,0.32
2023-01-17T21:29:37.828Z,0.40
2023-01-17T21:32:09.914Z,0.77
2023-01-17T21:34:40.363Z,0.40
2023-01-17T21:37:10.515Z,0.38
2023-01-17T21:39:40.883Z,0.40
2023-01-17T21:42:11.071Z,0.63
2023-01-17T21:47:10.377Z,0.60
2023-01-17T21:49:40.734Z,0.60
2023-01-17T21:52:13.562Z,0.30
2023-01-17T21:55:01.890Z,0.50
2023-01-17T21:57:50.116Z,0.65
2023-01-17T22:00:20.527Z,0.52
2023-01-17T22:02:50.809Z,0.98
2023-01-17T22:05:21.350Z,0.73
2023-01-17T22:08:11.794Z,0.50
2023-01-17T22:10:48.152Z,0.13
2023-01-17T22:13:20.146Z,0.52
2023-01-17T22:16:00.022Z,0.52
2023-01-17T22:18:30.656Z,0.40
2023-01-17T22:21:07.717Z,0.45
2023-01-17T22:23:38.163Z,0.30
2023-01-17T22:26:13.567Z,0.38
2023-01-17T22:28:43.996Z,0.40
2023-01-17T22:31:26.182Z,0.50
2023-01-17T22:33:59.490Z,0.47
2023-01-17T22:36:30.823Z,0.73
2023-01-17T22:39:01.330Z,0.50
2023-01-17T22:41:33.237Z,0.30
2023-01-17T22:44:04.099Z,0.50
2023-01-17T22:46:38.349Z,0.38
2023-01-17T22:49:09.621Z,0.60
2023-01-17T22:51:40.166Z,0.50
2023-01-17T22:54:12.543Z,0.43
2023-01-17T22:56:42.835Z,0.50
2023-01-17T22:59:13.361Z,0.60
2023-01-17T23:01:43.875Z,0.30
2023-01-17T23:04:15.754Z,0.30
2023-01-17T23:06:46.116Z,0.50
2023-01-17T23:09:18.447Z,0.50
2023-01-17T23:11:53.896Z,0.80
2023-01-17T23:14:30.117Z,0.80
2023-01-17T23:19:53.635Z,0.90
2023-01-17T23:22:28.103Z,0.60
2023-01-17T23:24:58.230Z,0.85
2023-01-17T23:27:58.578Z,1.30
2023-01-17T23:30:38.613Z,0.43
2023-01-17T23:33:12.045Z,0.90
2023-01-17T23:35:44.857Z,0.57
2023-01-17T23:38:32.525Z,0.57
2023-01-17T23:41:28.595Z,0.52
2023-01-17T23:44:00.159Z,0.47
2023-01-17T23:46:32.736Z,0.50
2023-01-17T23:49:02.968Z,0.73
2023-01-17T23:51:33.224Z,0.82
2023-01-17T23:54:06.596Z,0.43
2023-01-17T23:56:36.926Z,0.32
2023-01-17T23:59:07.215Z,0.45
